This is the latest recevied weather packets stored in our database for station/object KQ4NAL. If no packets are shown the sender has not sent any weather packets the latest 10 day(s).
| Time | Temp. | Humidity | Pressure | Rain* | Wind** | Luminosity | Snow |
|---|---|---|---|---|---|---|---|
| 1777764283 | 10.56° C | 46% | 1018 hPa | 0 mm | - | 72 W/m² | - |
| 1777763980 | 11.11° C | 45% | 1018.2 hPa | 0 mm | - | 98 W/m² | - |
| 1777763677 | 11.11° C | 45% | 1018.2 hPa | 0 mm | - | 89 W/m² | - |
| 1777763376 | 11.67° C | 44% | 1018.1 hPa | 0 mm | - | 79 W/m² | - |
| 1777763073 | 11.67° C | 46% | 1017.9 hPa | 0 mm | - | 171 W/m² | - |
| 1777762771 | 11.67° C | 45% | 1018 hPa | 0 mm | - | 78 W/m² | - |
| 1777762467 | 11.11° C | 45% | 1018.1 hPa | 0 mm | - | 131 W/m² | - |
| 1777762164 | 11.11° C | 45% | 1018.1 hPa | 0 mm | - | 83 W/m² | - |
| 1777761860 | 11.11° C | 46% | 1018.1 hPa | 0 mm | - | 95 W/m² | - |
| 1777761557 | 11.67° C | 45% | 1017.8 hPa | 0 mm | - | 90 W/m² | - |
| 1777761255 | 12.22° C | 42% | 1017.9 hPa | 0 mm | - | 94 W/m² | - |
| 1777760954 | 12.22° C | 42% | 1017.8 hPa | 0 mm | - | 288 W/m² | - |
| 1777760650 | 12.22° C | 43% | 1018 hPa | 0 mm | - | 87 W/m² | - |
| 1777760350 | 12.22° C | 42% | 1017.8 hPa | 0 mm | - | 318 W/m² | - |
| 1777760048 | 11.67° C | 43% | 1017.6 hPa | 0 mm | - | 350 W/m² | - |
| 1777759745 | 11.67° C | 43% | 1017.8 hPa | 0 mm | - | 114 W/m² | - |
| 1777759440 | 11.67° C | 42% | 1017.7 hPa | 0 mm | - | 262 W/m² | - |
| 1777759137 | 11.11° C | 42% | 1017.7 hPa | 0 mm | - | 98 W/m² | - |
| 1777758835 | 11.67° C | 41% | 1017.7 hPa | 0 mm | - | 92 W/m² | - |
| 1777758531 | 12.78° C | 39% | 1017.7 hPa | 0 mm | - | 131 W/m² | - |
| 1777758228 | 13.89° C | 39% | 1017.8 hPa | 0 mm | - | 371 W/m² | - |
| 1777757925 | 13.33° C | 41% | 1017.6 hPa | 0 mm | - | 438 W/m² | - |
| 1777757622 | 12.78° C | 41% | 1017.3 hPa | 0 mm | - | 516 W/m² | - |
| 1777757321 | 12.22° C | 42% | 1017.4 hPa | 0 mm | - | 530 W/m² | - |
| 1777757019 | 12.22° C | 41% | 1017.4 hPa | 0 mm | - | 223 W/m² | - |
* Rain latest hour (hover to see other rain measurements)
** Current wind speed in m/s (hover to see current wind gust speed)